createdAt,value
2018-08-25T00:01:05.156Z,100622.08
2018-08-25T00:03:32.110Z,100616.28
2018-08-25T00:05:59.049Z,100623.51
2018-08-25T00:08:25.977Z,100617.06
2018-08-25T00:10:52.899Z,100622.47
2018-08-25T00:13:19.828Z,100622.63
2018-08-25T00:15:46.770Z,100623.89
2018-08-25T00:18:13.725Z,100616.23
2018-08-25T00:20:40.780Z,100612.80
2018-08-25T00:23:07.744Z,100612.58
2018-08-25T00:25:34.729Z,100608.31
2018-08-25T00:28:01.642Z,100610.25
2018-08-25T00:30:34.504Z,100610.20
2018-08-25T00:33:01.449Z,100607.06
2018-08-25T00:35:28.497Z,100609.72
2018-08-25T00:37:55.442Z,100605.85
2018-08-25T00:40:22.397Z,100608.02
2018-08-25T00:42:49.307Z,100607.48
2018-08-25T00:45:16.232Z,100601.74
2018-08-25T00:47:43.253Z,100607.92
2018-08-25T00:50:10.169Z,100606.80
2018-08-25T00:52:37.344Z,100608.23
2018-08-25T00:55:04.388Z,100610.05
2018-08-25T00:57:31.408Z,100602.60
2018-08-25T00:59:58.312Z,100598.34
2018-08-25T01:02:25.441Z,100592.94
2018-08-25T01:04:52.432Z,100590.05
2018-08-25T01:07:19.376Z,100585.69
2018-08-25T01:09:46.324Z,100583.58
2018-08-25T01:12:13.288Z,100582.41
2018-08-25T01:14:40.248Z,100574.96
2018-08-25T01:17:07.250Z,100575.41
2018-08-25T01:19:40.953Z,100578.06
2018-08-25T01:22:07.900Z,100578.16
2018-08-25T01:24:34.841Z,100573.53
2018-08-25T01:27:01.773Z,100570.55
2018-08-25T01:29:28.721Z,100572.66
2018-08-25T01:31:55.643Z,100563.09
2018-08-25T01:34:22.552Z,100564.92
2018-08-25T01:36:49.481Z,100566.98
2018-08-25T01:39:16.422Z,100565.03
2018-08-25T01:41:43.357Z,100563.22
2018-08-25T01:44:10.308Z,100559.30
2018-08-25T01:46:37.266Z,100563.37
2018-08-25T01:49:04.236Z,100558.08
2018-08-25T01:51:31.188Z,100558.28
2018-08-25T01:53:58.158Z,100549.27
2018-08-25T01:56:25.152Z,100550.63
2018-08-25T01:58:52.105Z,100564.44
2018-08-25T02:01:19.044Z,100569.59
2018-08-25T02:03:45.979Z,100568.95
2018-08-25T02:06:12.909Z,100562.08
2018-08-25T02:08:39.841Z,100566.10
2018-08-25T02:11:06.780Z,100560.71
2018-08-25T02:13:33.721Z,100567.91
2018-08-25T02:16:00.648Z,100565.72
2018-08-25T02:18:27.583Z,100564.67
2018-08-25T02:20:54.514Z,100558.39
2018-08-25T02:23:21.465Z,100556.95
2018-08-25T02:25:48.384Z,100556.92
2018-08-25T02:28:15.407Z,100558.72
2018-08-25T02:30:42.264Z,100561.81
2018-08-25T02:33:09.218Z,100559.45
2018-08-25T02:35:36.195Z,100559.80
2018-08-25T02:38:03.142Z,100560.50
2018-08-25T02:40:30.113Z,100564.08
2018-08-25T02:42:57.096Z,100557.20
2018-08-25T02:45:24.473Z,100558.91
2018-08-25T02:47:52.160Z,100555.17
2018-08-25T02:50:19.093Z,100537.07
2018-08-25T02:52:46.041Z,100538.09
2018-08-25T02:55:12.984Z,100538.97
2018-08-25T02:57:39.933Z,100541.83
2018-08-25T03:00:12.844Z,100549.00
2018-08-25T03:02:39.784Z,100540.98
2018-08-25T03:05:06.765Z,100545.91
2018-08-25T03:07:33.716Z,100543.67
2018-08-25T03:10:00.665Z,100544.47
2018-08-25T03:12:27.593Z,100542.88
2018-08-25T03:14:54.545Z,100534.04
2018-08-25T03:17:21.488Z,100529.32
2018-08-25T03:19:48.433Z,100533.33
2018-08-25T03:22:15.406Z,100530.82
2018-08-25T03:24:42.384Z,100531.61
2018-08-25T03:27:09.352Z,100525.80
2018-08-25T03:29:36.386Z,100523.02
2018-08-25T03:32:03.348Z,100529.59
2018-08-25T03:34:30.309Z,100523.77
2018-08-25T03:36:57.308Z,100520.94
2018-08-25T03:39:24.262Z,100520.80
2018-08-25T03:41:51.206Z,100520.91
2018-08-25T03:44:18.144Z,100525.43
2018-08-25T03:46:45.085Z,100529.69
2018-08-25T03:49:12.008Z,100526.08
2018-08-25T03:51:38.938Z,100528.63
2018-08-25T03:54:12.755Z,100522.41
2018-08-25T03:56:39.699Z,100517.06
2018-08-25T03:59:06.613Z,100516.08
2018-08-25T04:01:33.594Z,100507.07
2018-08-25T04:04:00.459Z,100502.70
2018-08-25T04:06:27.445Z,100500.45
2018-08-25T04:08:54.338Z,100502.17
2018-08-25T04:11:21.292Z,100499.38
2018-08-25T04:13:48.203Z,100503.44
2018-08-25T04:16:15.138Z,100503.39
2018-08-25T04:18:42.055Z,100504.23
2018-08-25T04:21:09.019Z,100494.13
2018-08-25T04:23:35.940Z,100498.45
2018-08-25T04:26:02.896Z,100498.40
2018-08-25T04:28:29.848Z,100495.12
2018-08-25T04:30:56.800Z,100493.09
2018-08-25T04:33:23.767Z,100487.56
2018-08-25T04:35:50.732Z,100486.59
2018-08-25T04:38:17.694Z,100483.55
2018-08-25T04:40:44.633Z,100484.73
2018-08-25T04:43:11.602Z,100484.64
2018-08-25T04:45:38.520Z,100486.59
2018-08-25T04:48:05.477Z,100483.27
2018-08-25T04:50:32.421Z,100485.13
2018-08-25T04:52:59.376Z,100484.64
2018-08-25T04:55:26.310Z,100482.34
2018-08-25T04:57:53.224Z,100489.68
2018-08-25T05:00:20.273Z,100486.78
2018-08-25T05:02:47.249Z,100484.61
2018-08-25T05:05:14.221Z,100480.44
2018-08-25T05:07:41.205Z,100486.12
2018-08-25T05:10:08.305Z,100486.92
2018-08-25T05:12:35.277Z,100478.03
2018-08-25T05:15:02.280Z,100483.17
2018-08-25T05:17:29.287Z,100484.52
2018-08-25T05:19:56.252Z,100481.09
2018-08-25T05:22:23.245Z,100487.07
2018-08-25T05:24:50.203Z,100472.33
2018-08-25T05:27:17.150Z,100472.00
2018-08-25T05:29:44.131Z,100472.71
2018-08-25T05:32:11.069Z,100464.88
2018-08-25T05:34:38.049Z,100470.75
2018-08-25T05:37:05.050Z,100473.99
2018-08-25T05:39:32.001Z,100473.65
2018-08-25T05:41:59.746Z,100476.97
2018-08-25T05:44:26.977Z,100467.14
2018-08-25T05:46:53.962Z,100471.56
2018-08-25T05:49:20.893Z,100472.09
2018-08-25T05:51:47.888Z,100465.50
2018-08-25T05:54:14.854Z,100469.59
2018-08-25T05:56:41.861Z,100472.20
2018-08-25T05:59:08.911Z,100468.89
2018-08-25T06:01:35.900Z,100469.12
2018-08-25T06:04:02.840Z,100459.41
2018-08-25T06:06:29.800Z,100458.79
2018-08-25T06:08:56.764Z,100453.33
2018-08-25T06:11:23.690Z,100457.57
2018-08-25T06:13:50.682Z,100454.79
2018-08-25T06:16:17.632Z,100452.81
2018-08-25T06:18:44.582Z,100454.04
2018-08-25T06:21:11.493Z,100464.14
2018-08-25T06:23:38.435Z,100462.88
2018-08-25T06:26:05.388Z,100460.00
2018-08-25T06:28:32.318Z,100455.63
2018-08-25T06:30:59.248Z,100459.88
2018-08-25T06:33:26.229Z,100461.69
2018-08-25T06:35:53.120Z,100464.53
2018-08-25T06:38:20.064Z,100465.85
2018-08-25T06:40:47.030Z,100458.76
2018-08-25T06:43:13.941Z,100463.35
2018-08-25T06:45:40.878Z,100454.19
2018-08-25T06:48:07.780Z,100448.27
2018-08-25T06:50:34.729Z,100453.31
2018-08-25T06:53:01.761Z,100446.53
2018-08-25T06:55:28.688Z,100444.13
2018-08-25T06:57:55.636Z,100449.38
2018-08-25T07:00:22.648Z,100448.59
2018-08-25T07:02:49.627Z,100448.06
2018-08-25T07:05:16.920Z,100452.03
2018-08-25T07:07:43.853Z,100448.30
2018-08-25T07:10:10.777Z,100447.21
2018-08-25T07:12:37.712Z,100451.66
2018-08-25T07:15:05.353Z,100450.53
2018-08-25T07:17:32.290Z,100452.81
2018-08-25T07:19:59.193Z,100453.44
2018-08-25T07:22:26.144Z,100458.51
2018-08-25T07:24:53.318Z,100461.27
2018-08-25T07:27:20.299Z,100452.48
2018-08-25T07:29:47.227Z,100452.11
2018-08-25T07:32:14.224Z,100460.31
2018-08-25T07:34:41.117Z,100453.67
2018-08-25T07:37:08.053Z,100453.08
2018-08-25T07:39:34.982Z,100453.53
2018-08-25T07:42:01.927Z,100452.53
2018-08-25T07:44:28.868Z,100457.78
2018-08-25T07:46:55.852Z,100456.27
2018-08-25T07:49:22.782Z,100453.81
2018-08-25T07:51:49.712Z,100462.98
2018-08-25T07:54:16.664Z,100450.87
2018-08-25T07:56:43.611Z,100448.03
2018-08-25T07:59:10.556Z,100450.28
2018-08-25T08:01:37.475Z,100444.50
2018-08-25T08:04:04.527Z,100446.66
2018-08-25T08:06:31.744Z,100449.66
2018-08-25T08:08:58.976Z,100450.72
2018-08-25T08:11:25.906Z,100445.11
2018-08-25T08:13:52.846Z,100444.45
2018-08-25T08:16:19.788Z,100445.54
2018-08-25T08:18:46.721Z,100444.95
2018-08-25T08:21:13.632Z,100448.36
2018-08-25T08:23:40.558Z,100442.52
2018-08-25T08:26:07.474Z,100446.58
2018-08-25T08:28:35.397Z,100451.41
2018-08-25T08:31:02.361Z,100460.44
2018-08-25T08:33:29.325Z,100453.72
2018-08-25T08:35:56.266Z,100463.86
2018-08-25T08:38:23.496Z,100461.48
2018-08-25T08:40:50.444Z,100470.42
2018-08-25T08:43:18.276Z,100466.92
2018-08-25T08:45:45.257Z,100477.69
2018-08-25T08:48:12.200Z,100487.38
2018-08-25T08:50:39.161Z,100485.55
2018-08-25T08:53:06.112Z,100494.97
2018-08-25T08:55:33.074Z,100494.09
2018-08-25T08:58:00.014Z,100486.01
2018-08-25T09:00:26.993Z,100480.47
2018-08-25T09:02:53.970Z,100473.16
2018-08-25T09:05:20.947Z,100471.41
2018-08-25T09:07:47.921Z,100469.72
2018-08-25T09:10:14.890Z,100470.91
2018-08-25T09:12:41.842Z,100463.27
2018-08-25T09:15:08.804Z,100454.82
2018-08-25T09:17:35.736Z,100461.17
2018-08-25T09:20:02.756Z,100462.12
2018-08-25T09:22:29.705Z,100454.47
2018-08-25T09:24:56.650Z,100446.03
2018-08-25T09:27:23.595Z,100445.47
2018-08-25T09:29:50.538Z,100444.51
2018-08-25T09:32:17.458Z,100444.85
2018-08-25T09:34:44.376Z,100439.30
2018-08-25T09:37:11.273Z,100425.05
2018-08-25T09:39:38.179Z,100425.39
2018-08-25T09:42:05.101Z,100421.05
2018-08-25T09:44:32.045Z,100430.97
2018-08-25T09:46:59.102Z,100422.91
2018-08-25T09:49:26.035Z,100429.53
2018-08-25T09:51:52.942Z,100434.78
2018-08-25T09:54:19.865Z,100440.86
2018-08-25T09:56:46.876Z,100438.43
2018-08-25T09:59:13.772Z,100442.34
2018-08-25T10:01:46.601Z,100432.16
2018-08-25T10:04:14.280Z,100431.31
2018-08-25T10:06:41.213Z,100433.03
2018-08-25T10:09:08.271Z,100429.69
2018-08-25T10:11:35.278Z,100430.10
2018-08-25T10:14:02.288Z,100425.47
2018-08-25T10:16:31.435Z,100416.62
2018-08-25T10:18:59.887Z,100424.50
2018-08-25T10:21:27.577Z,100429.84
2018-08-25T10:23:54.514Z,100431.88
2018-08-25T10:26:21.452Z,100435.53
2018-08-25T10:28:50.136Z,100433.16
2018-08-25T10:31:17.477Z,100429.08
2018-08-25T10:33:44.907Z,100435.80
2018-08-25T10:36:14.060Z,100430.83
2018-08-25T10:38:41.935Z,100425.89
2018-08-25T10:41:09.696Z,100428.13
2018-08-25T10:43:36.716Z,100431.73
2018-08-25T10:46:03.941Z,100438.81
2018-08-25T10:48:30.853Z,100437.55
2018-08-25T10:50:57.785Z,100441.13
2018-08-25T10:53:25.160Z,100441.92
2018-08-25T10:55:52.131Z,100443.16
2018-08-25T10:58:19.070Z,100437.95
2018-08-25T11:00:46.110Z,100435.46
2018-08-25T11:03:12.930Z,100427.33
2018-08-25T11:05:39.839Z,100425.61
2018-08-25T11:08:06.766Z,100433.22
2018-08-25T11:10:33.707Z,100432.38
2018-08-25T11:13:00.610Z,100429.31
2018-08-25T11:15:27.733Z,100423.52
2018-08-25T11:17:54.635Z,100418.75
2018-08-25T11:20:21.553Z,100412.91
2018-08-25T11:22:48.476Z,100409.32
2018-08-25T11:25:15.406Z,100403.45
2018-08-25T11:27:42.359Z,100404.27
2018-08-25T11:30:09.328Z,100405.67
2018-08-25T11:32:36.279Z,100412.69
2018-08-25T11:35:03.244Z,100413.33
2018-08-25T11:37:30.232Z,100409.89
2018-08-25T11:39:57.160Z,100411.67
2018-08-25T11:42:24.084Z,100409.92
2018-08-25T11:44:51.033Z,100407.34
2018-08-25T11:47:18.233Z,100410.25
2018-08-25T11:49:46.192Z,100404.27
2018-08-25T11:52:13.169Z,100416.17
2018-08-25T11:54:40.084Z,100412.92
2018-08-25T11:57:07.017Z,100408.17
2018-08-25T11:59:33.946Z,100416.01
2018-08-25T12:02:00.885Z,100410.71
2018-08-25T12:04:27.820Z,100411.97
2018-08-25T12:06:54.742Z,100406.55
2018-08-25T12:09:21.712Z,100403.70
2018-08-25T12:11:48.589Z,100407.14
2018-08-25T12:14:15.509Z,100402.97
2018-08-25T12:16:42.428Z,100406.91
2018-08-25T12:19:10.277Z,100405.11
2018-08-25T12:21:37.216Z,100414.10
2018-08-25T12:24:05.200Z,100411.08
2018-08-25T12:26:32.158Z,100413.89
2018-08-25T12:28:59.068Z,100425.01
2018-08-25T12:31:26.025Z,100429.16
2018-08-25T12:33:53.009Z,100433.08
2018-08-25T12:36:19.919Z,100436.45
2018-08-25T12:38:46.888Z,100438.09
2018-08-25T12:41:13.808Z,100435.50
2018-08-25T12:43:40.754Z,100435.73
2018-08-25T12:46:07.707Z,100448.64
2018-08-25T12:48:34.651Z,100451.52
2018-08-25T12:51:01.558Z,100452.34
2018-08-25T12:53:28.477Z,100455.73
2018-08-25T12:55:55.381Z,100460.53
2018-08-25T12:58:22.326Z,100456.17
2018-08-25T13:00:49.262Z,100451.92
2018-08-25T13:03:16.203Z,100453.67
2018-08-25T13:05:43.113Z,100445.08
2018-08-25T13:08:10.144Z,100451.44
2018-08-25T13:10:37.072Z,100453.81
2018-08-25T13:13:04.072Z,100457.42
2018-08-25T13:15:30.961Z,100465.64
2018-08-25T13:17:57.878Z,100459.59
2018-08-25T13:20:24.792Z,100464.84
2018-08-25T13:22:51.731Z,100472.31
2018-08-25T13:25:19.454Z,100475.83
2018-08-25T13:27:46.384Z,100484.71
2018-08-25T13:30:20.082Z,100486.42
2018-08-25T13:32:47.041Z,100497.47
2018-08-25T13:35:13.969Z,100502.39
2018-08-25T13:37:40.926Z,100504.08
2018-08-25T13:40:08.001Z,100505.66
2018-08-25T13:42:34.928Z,100508.91
2018-08-25T13:45:01.889Z,100504.72
2018-08-25T13:47:28.809Z,100510.23
2018-08-25T13:49:55.779Z,100509.66
2018-08-25T13:52:22.740Z,100513.95
2018-08-25T13:54:49.706Z,100516.67
2018-08-25T13:57:16.658Z,100519.81
2018-08-25T13:59:43.585Z,100525.20
2018-08-25T14:02:10.988Z,100506.38
2018-08-25T14:04:37.913Z,100525.36
2018-08-25T14:07:04.827Z,100523.26
2018-08-25T14:09:31.778Z,100523.67
2018-08-25T14:11:58.728Z,100516.41
2018-08-25T14:14:25.644Z,100524.94
2018-08-25T14:16:52.588Z,100523.26
2018-08-25T14:19:19.545Z,100528.98
2018-08-25T14:21:46.476Z,100527.52
2018-08-25T14:24:13.416Z,100523.53
2018-08-25T14:26:40.371Z,100523.34
2018-08-25T14:29:07.297Z,100520.02
2018-08-25T14:31:34.206Z,100536.16
2018-08-25T14:34:01.121Z,100530.62
2018-08-25T14:36:28.079Z,100536.34
2018-08-25T14:38:55.002Z,100528.80
2018-08-25T14:41:21.946Z,100530.34
2018-08-25T14:43:48.887Z,100535.98
2018-08-25T14:46:15.827Z,100532.18
2018-08-25T14:48:42.870Z,100533.13
2018-08-25T14:51:09.769Z,100532.39
2018-08-25T14:53:36.704Z,100522.34
2018-08-25T14:56:03.630Z,100527.94
2018-08-25T14:58:30.560Z,100517.89
2018-08-25T15:00:57.591Z,100516.39
2018-08-25T15:03:24.415Z,100520.45
2018-08-25T15:05:51.329Z,100514.59
2018-08-25T15:08:18.260Z,100524.36
2018-08-25T15:10:45.174Z,100517.25
2018-08-25T15:13:12.149Z,100522.55
2018-08-25T15:15:39.055Z,100519.31
2018-08-25T15:18:05.997Z,100519.84
2018-08-25T15:20:32.920Z,100528.02
2018-08-25T15:22:59.870Z,100524.07
2018-08-25T15:25:26.825Z,100527.63
2018-08-25T15:27:53.748Z,100530.42
2018-08-25T15:30:20.681Z,100534.18
2018-08-25T15:32:47.608Z,100538.16
2018-08-25T15:35:14.533Z,100529.99
2018-08-25T15:37:41.449Z,100537.14
2018-08-25T15:40:08.384Z,100545.42
2018-08-25T15:42:35.342Z,100542.13
2018-08-25T15:45:02.276Z,100549.80
2018-08-25T15:47:29.189Z,100541.23
2018-08-25T15:49:56.421Z,100541.66
2018-08-25T15:52:23.360Z,100551.25
2018-08-25T15:54:50.337Z,100544.03
2018-08-25T15:57:17.328Z,100552.88
2018-08-25T15:59:44.241Z,100550.29
2018-08-25T16:02:11.242Z,100553.77
2018-08-25T16:04:38.184Z,100555.78
2018-08-25T16:07:05.121Z,100563.12
2018-08-25T16:09:32.058Z,100560.30
2018-08-25T16:11:59.154Z,100556.13
2018-08-25T16:14:26.606Z,100552.51
2018-08-25T16:16:53.528Z,100550.64
2018-08-25T16:19:20.552Z,100551.18
2018-08-25T16:21:47.370Z,100546.73
2018-08-25T16:24:14.299Z,100545.88
2018-08-25T16:26:41.228Z,100541.78
2018-08-25T16:29:08.161Z,100552.20
2018-08-25T16:31:35.089Z,100549.03
2018-08-25T16:34:02.268Z,100547.18
2018-08-25T16:36:29.175Z,100556.36
2018-08-25T16:38:56.375Z,100553.46
2018-08-25T16:41:23.300Z,100557.34
2018-08-25T16:43:50.313Z,100573.70
2018-08-25T16:46:17.272Z,100569.25
2018-08-25T16:48:44.537Z,100569.02
2018-08-25T16:51:11.473Z,100567.98
2018-08-25T16:53:38.383Z,100579.09
2018-08-25T16:56:05.376Z,100583.32
2018-08-25T16:58:32.301Z,100584.02
2018-08-25T17:00:59.237Z,100581.36
2018-08-25T17:03:26.206Z,100592.83
2018-08-25T17:05:53.121Z,100595.63
2018-08-25T17:08:20.068Z,100597.34
2018-08-25T17:10:46.978Z,100599.87
2018-08-25T17:13:13.884Z,100601.70
2018-08-25T17:15:40.829Z,100609.92
2018-08-25T17:18:07.781Z,100616.44
2018-08-25T17:20:34.725Z,100620.70
2018-08-25T17:23:01.708Z,100620.41
2018-08-25T17:25:28.652Z,100626.30
2018-08-25T17:27:55.600Z,100623.63
2018-08-25T17:30:22.541Z,100628.33
2018-08-25T17:32:49.485Z,100626.97
2018-08-25T17:35:16.428Z,100623.92
2018-08-25T17:37:43.388Z,100629.06
2018-08-25T17:40:10.357Z,100625.75
2018-08-25T17:42:37.328Z,100624.11
2018-08-25T17:45:04.849Z,100627.36
2018-08-25T17:47:31.775Z,100628.66
2018-08-25T17:49:58.739Z,100626.69
2018-08-25T17:52:25.819Z,100631.66
2018-08-25T17:54:52.749Z,100630.78
2018-08-25T17:57:19.800Z,100632.98
2018-08-25T17:59:46.685Z,100638.17
2018-08-25T18:02:13.624Z,100639.83
2018-08-25T18:04:40.618Z,100645.08
2018-08-25T18:07:07.613Z,100646.98
2018-08-25T18:09:34.555Z,100649.91
2018-08-25T18:12:01.499Z,100653.63
2018-08-25T18:14:28.424Z,100654.19
2018-08-25T18:16:55.410Z,100659.14
2018-08-25T18:19:22.382Z,100657.48
2018-08-25T18:21:49.321Z,100660.14
2018-08-25T18:24:16.232Z,100661.92
2018-08-25T18:26:43.165Z,100666.42
2018-08-25T18:29:10.098Z,100672.28
2018-08-25T18:31:37.029Z,100683.88
2018-08-25T18:34:04.001Z,100676.70
2018-08-25T18:36:30.965Z,100682.14
2018-08-25T18:38:57.881Z,100687.78
2018-08-25T18:41:24.807Z,100690.31
2018-08-25T18:43:51.720Z,100682.02
2018-08-25T18:46:18.653Z,100689.48
2018-08-25T18:48:45.568Z,100693.04
2018-08-25T18:51:12.504Z,100695.36
2018-08-25T18:53:39.447Z,100695.03
2018-08-25T18:56:06.385Z,100690.86
2018-08-25T18:58:33.307Z,100698.66
2018-08-25T19:01:00.229Z,100705.47
2018-08-25T19:03:27.156Z,100706.86
2018-08-25T19:05:54.177Z,100707.06
2018-08-25T19:08:21.098Z,100718.56
2018-08-25T19:10:48.016Z,100718.23
2018-08-25T19:13:14.975Z,100719.13
2018-08-25T19:15:41.921Z,100725.89
2018-08-25T19:18:08.869Z,100726.70
2018-08-25T19:20:35.853Z,100730.80
2018-08-25T19:23:02.777Z,100730.64
2018-08-25T19:25:29.680Z,100738.13
2018-08-25T19:27:56.626Z,100734.84
2018-08-25T19:30:23.555Z,100737.67
2018-08-25T19:32:50.456Z,100742.53
2018-08-25T19:35:17.381Z,100743.43
2018-08-25T19:37:44.312Z,100745.36
2018-08-25T19:40:11.317Z,100744.37
2018-08-25T19:42:38.257Z,100733.80
2018-08-25T19:45:05.360Z,100741.94
2018-08-25T19:47:32.298Z,100731.27
2018-08-25T19:49:59.210Z,100736.06
2018-08-25T19:52:26.173Z,100730.39
2018-08-25T19:54:53.112Z,100732.98
2018-08-25T19:57:20.058Z,100739.85
2018-08-25T19:59:46.977Z,100736.92
2018-08-25T20:02:14.165Z,100738.69
2018-08-25T20:04:41.081Z,100741.13
2018-08-25T20:07:07.997Z,100748.16
2018-08-25T20:09:34.960Z,100739.31
2018-08-25T20:12:01.907Z,100745.44
2018-08-25T20:14:28.816Z,100748.31
2018-08-25T20:16:55.752Z,100749.43
2018-08-25T20:19:22.668Z,100753.46
2018-08-25T20:21:49.631Z,100754.73
2018-08-25T20:24:16.568Z,100754.00
2018-08-25T20:26:43.532Z,100762.23
2018-08-25T20:29:10.477Z,100758.86
2018-08-25T20:31:37.427Z,100764.56
2018-08-25T20:34:04.389Z,100765.89
2018-08-25T20:36:31.393Z,100765.78
2018-08-25T20:38:58.327Z,100772.78
2018-08-25T20:41:25.550Z,100772.38
2018-08-25T20:43:52.504Z,100770.72
2018-08-25T20:46:19.447Z,100780.00
2018-08-25T20:48:46.415Z,100780.39
2018-08-25T20:51:13.358Z,100783.75
2018-08-25T20:53:40.298Z,100786.68
2018-08-25T20:56:07.227Z,100787.62
2018-08-25T20:58:34.173Z,100794.84
2018-08-25T21:01:01.119Z,100795.69
2018-08-25T21:03:28.105Z,100799.27
2018-08-25T21:05:55.060Z,100798.88
2018-08-25T21:08:22.025Z,100805.50
2018-08-25T21:10:48.952Z,100805.66
2018-08-25T21:13:15.889Z,100811.61
2018-08-25T21:15:42.822Z,100811.50
2018-08-25T21:18:09.770Z,100815.38
2018-08-25T21:20:36.692Z,100814.98
2018-08-25T21:23:03.645Z,100810.91
2018-08-25T21:25:30.568Z,100818.03
2018-08-25T21:27:57.513Z,100813.91
2018-08-25T21:30:24.447Z,100812.03
2018-08-25T21:32:51.388Z,100817.23
2018-08-25T21:35:18.328Z,100822.53
2018-08-25T21:37:45.264Z,100823.53
2018-08-25T21:40:12.304Z,100826.81
2018-08-25T21:42:39.262Z,100830.39
2018-08-25T21:45:06.212Z,100827.64
2018-08-25T21:47:33.150Z,100831.13
2018-08-25T21:50:00.089Z,100835.06
2018-08-25T21:52:27.053Z,100839.81
2018-08-25T21:54:53.980Z,100842.91
2018-08-25T21:57:20.954Z,100833.84
2018-08-25T21:59:47.901Z,100835.89
2018-08-25T22:02:17.267Z,100843.17
2018-08-25T22:04:44.316Z,100839.74
2018-08-25T22:07:11.266Z,100841.60
2018-08-25T22:09:38.204Z,100839.14
2018-08-25T22:12:05.404Z,100847.64
2018-08-25T22:14:32.328Z,100849.90
2018-08-25T22:16:59.269Z,100858.84
2018-08-25T22:19:26.229Z,100855.84
2018-08-25T22:21:53.180Z,100860.31
2018-08-25T22:24:20.113Z,100864.81
2018-08-25T22:26:47.044Z,100856.91
2018-08-25T22:29:13.988Z,100863.89
2018-08-25T22:31:40.932Z,100863.49
2018-08-25T22:34:07.861Z,100866.03
2018-08-25T22:36:35.018Z,100872.31
2018-08-25T22:39:02.000Z,100878.06
2018-08-25T22:41:29.014Z,100870.70
2018-08-25T22:43:56.021Z,100871.53
2018-08-25T22:46:22.953Z,100880.31
2018-08-25T22:48:49.960Z,100878.74
2018-08-25T22:51:16.918Z,100878.65
2018-08-25T22:53:43.837Z,100879.67
2018-08-25T22:56:10.777Z,100882.86
2018-08-25T22:58:39.208Z,100883.03
2018-08-25T23:01:06.283Z,100889.03
2018-08-25T23:03:33.272Z,100887.19
2018-08-25T23:06:00.216Z,100892.78
2018-08-25T23:08:27.142Z,100890.10
2018-08-25T23:10:54.068Z,100891.56
2018-08-25T23:13:21.004Z,100896.36
2018-08-25T23:15:49.288Z,100891.16
2018-08-25T23:18:16.215Z,100896.33
2018-08-25T23:20:43.831Z,100894.06
2018-08-25T23:23:10.848Z,100887.48
2018-08-25T23:25:38.737Z,100890.27
2018-08-25T23:28:05.668Z,100887.61
2018-08-25T23:30:32.655Z,100892.51
2018-08-25T23:32:59.511Z,100893.36
2018-08-25T23:35:26.530Z,100899.41
2018-08-25T23:37:54.128Z,100896.92
2018-08-25T23:40:21.070Z,100897.93
2018-08-25T23:42:47.988Z,100904.11
2018-08-25T23:45:14.905Z,100897.26
2018-08-25T23:47:41.893Z,100905.44
2018-08-25T23:50:15.660Z,100904.28
2018-08-25T23:52:42.564Z,100900.07
2018-08-25T23:55:10.813Z,100901.00
2018-08-25T23:57:38.526Z,100900.07
